createdAt,value
2019-02-26T00:01:34.881Z,5.68
2019-02-26T00:04:01.563Z,5.45
2019-02-26T00:06:30.121Z,5.69
2019-02-26T00:08:59.552Z,5.51
2019-02-26T00:11:26.722Z,5.44
2019-02-26T00:13:55.102Z,5.44
2019-02-26T00:16:22.782Z,5.17
2019-02-26T00:18:49.436Z,5.05
2019-02-26T00:21:16.432Z,5.16
2019-02-26T00:23:44.463Z,5.45
2019-02-26T00:26:12.813Z,5.60
2019-02-26T00:28:41.599Z,5.61
2019-02-26T00:31:08.932Z,5.79
2019-02-26T00:33:35.620Z,5.82
2019-02-26T00:36:04.343Z,5.61
2019-02-26T00:38:32.902Z,5.34
2019-02-26T00:41:01.758Z,5.11
2019-02-26T00:43:30.181Z,5.46
2019-02-26T00:45:58.343Z,5.38
2019-02-26T00:48:25.636Z,5.18
2019-02-26T00:50:54.299Z,4.89
2019-02-26T00:53:21.741Z,5.19
2019-02-26T00:55:51.590Z,5.37
2019-02-26T00:58:18.226Z,5.67
2019-02-26T01:00:44.864Z,5.11
2019-02-26T01:03:13.688Z,5.18
2019-02-26T01:05:41.016Z,4.97
2019-02-26T01:08:12.775Z,4.82
2019-02-26T01:10:39.297Z,4.72
2019-02-26T01:13:07.260Z,4.76
2019-02-26T01:15:34.178Z,4.59
2019-02-26T01:18:02.820Z,4.68
2019-02-26T01:20:31.798Z,4.74
2019-02-26T01:22:58.276Z,4.79
2019-02-26T01:25:24.945Z,4.82
2019-02-26T01:27:53.178Z,4.66
2019-02-26T01:30:23.632Z,4.48
2019-02-26T01:32:48.835Z,4.24
2019-02-26T01:35:15.592Z,4.16
2019-02-26T01:37:42.273Z,4.05
2019-02-26T01:40:12.904Z,3.90
2019-02-26T01:42:38.125Z,3.89
2019-02-26T01:45:05.779Z,3.88
2019-02-26T01:47:32.435Z,4.04
2019-02-26T01:49:59.457Z,4.41
2019-02-26T01:52:26.162Z,4.08
2019-02-26T01:54:53.512Z,3.99
2019-02-26T01:57:21.590Z,3.92
2019-02-26T01:59:50.135Z,3.93
2019-02-26T02:02:18.133Z,4.15
2019-02-26T02:04:45.535Z,3.95
2019-02-26T02:07:12.185Z,4.00
2019-02-26T02:09:39.004Z,3.92
2019-02-26T02:12:07.131Z,4.25
2019-02-26T02:14:34.354Z,4.41
2019-02-26T02:17:01.677Z,4.42
2019-02-26T02:19:30.936Z,4.28
2019-02-26T02:21:58.614Z,4.33
2019-02-26T02:24:25.283Z,4.44
2019-02-26T02:26:53.527Z,4.06
2019-02-26T02:29:21.655Z,4.12
2019-02-26T02:31:49.198Z,4.18
2019-02-26T02:34:15.893Z,4.26
2019-02-26T02:36:42.629Z,4.00
2019-02-26T02:39:12.926Z,3.70
2019-02-26T02:41:39.262Z,3.47
2019-02-26T02:44:06.633Z,3.39
2019-02-26T02:46:34.135Z,3.41
2019-02-26T02:49:02.295Z,3.24
2019-02-26T02:51:31.486Z,3.45
2019-02-26T02:53:59.384Z,3.48
2019-02-26T02:56:26.112Z,3.42
2019-02-26T02:58:52.862Z,3.33
2019-02-26T03:01:22.283Z,3.81
2019-02-26T03:03:50.275Z,3.61
2019-02-26T03:06:16.859Z,3.71
2019-02-26T03:08:45.286Z,3.52
2019-02-26T03:11:12.148Z,3.47
2019-02-26T03:13:40.410Z,3.43
2019-02-26T03:16:07.389Z,3.57
2019-02-26T03:18:34.087Z,3.26
2019-02-26T03:21:02.474Z,3.34
2019-02-26T03:23:30.843Z,3.52
2019-02-26T03:25:58.145Z,3.32
2019-02-26T03:28:24.798Z,3.33
2019-02-26T03:30:51.547Z,3.21
2019-02-26T03:33:18.233Z,3.20
2019-02-26T03:35:44.894Z,3.23
2019-02-26T03:38:11.695Z,3.29
2019-02-26T03:40:38.403Z,3.30
2019-02-26T03:43:07.466Z,3.07
2019-02-26T03:45:33.621Z,2.90
2019-02-26T03:48:00.324Z,2.81
2019-02-26T03:50:27.255Z,3.49
2019-02-26T03:52:54.042Z,3.28
2019-02-26T03:55:20.693Z,3.10
2019-02-26T03:57:50.380Z,3.05
2019-02-26T04:00:17.436Z,2.97
2019-02-26T04:02:47.719Z,2.84
2019-02-26T04:05:13.368Z,2.82
2019-02-26T04:07:40.083Z,2.80
2019-02-26T04:10:07.345Z,2.77
2019-02-26T04:12:39.250Z,2.68
2019-02-26T04:15:02.945Z,2.73
2019-02-26T04:17:30.753Z,2.80
2019-02-26T04:19:58.096Z,2.72
2019-02-26T04:22:34.188Z,2.67
2019-02-26T04:25:08.314Z,2.57
2019-02-26T04:28:14.931Z,2.63
2019-02-26T04:31:28.628Z,2.64
2019-02-26T04:34:08.642Z,2.55
2019-02-26T04:37:42.107Z,2.45
2019-02-26T04:40:32.930Z,2.52
2019-02-26T04:43:34.105Z,2.64
2019-02-26T04:46:51.478Z,2.65
2019-02-26T04:49:19.844Z,2.45
2019-02-26T04:51:48.399Z,2.35
2019-02-26T04:54:21.178Z,2.29
2019-02-26T04:56:45.106Z,2.20
2019-02-26T04:59:14.486Z,2.34
2019-02-26T05:01:40.930Z,2.46
2019-02-26T05:04:07.689Z,2.40
2019-02-26T05:06:34.344Z,2.29
2019-02-26T05:09:02.838Z,2.31
2019-02-26T05:11:32.409Z,2.47
2019-02-26T05:13:58.238Z,2.51
2019-02-26T05:16:26.662Z,2.80
2019-02-26T05:18:54.927Z,2.84
2019-02-26T05:21:24.392Z,2.70
2019-02-26T05:23:52.399Z,2.85
2019-02-26T05:26:20.824Z,2.88
2019-02-26T05:28:49.689Z,2.94
2019-02-26T05:31:17.489Z,2.91
2019-02-26T05:33:46.335Z,3.02
2019-02-26T05:36:15.020Z,2.84
2019-02-26T05:38:41.522Z,2.65
2019-02-26T05:41:08.206Z,2.61
2019-02-26T05:43:34.924Z,2.67
2019-02-26T05:46:03.985Z,2.58
2019-02-26T05:48:30.462Z,2.65
2019-02-26T05:50:58.042Z,2.58
2019-02-26T05:53:25.788Z,2.70
2019-02-26T05:55:54.179Z,2.53
2019-02-26T05:58:21.559Z,2.50
2019-02-26T06:00:48.249Z,2.48
2019-02-26T06:03:18.276Z,2.48
2019-02-26T06:05:46.009Z,2.35
2019-02-26T06:08:12.252Z,2.27
2019-02-26T06:10:38.967Z,2.15
2019-02-26T06:13:07.615Z,2.29
2019-02-26T06:15:34.255Z,2.16
2019-02-26T06:18:00.945Z,2.12
2019-02-26T06:20:29.217Z,2.13
2019-02-26T06:22:56.201Z,2.17
2019-02-26T06:25:24.336Z,2.02
2019-02-26T06:27:51.613Z,2.08
2019-02-26T06:30:18.274Z,2.14
2019-02-26T06:32:45.001Z,2.11
2019-02-26T06:35:13.658Z,2.19
2019-02-26T06:37:41.923Z,2.16
2019-02-26T06:40:09.841Z,2.18
2019-02-26T06:42:38.063Z,2.13
2019-02-26T06:45:08.335Z,2.27
2019-02-26T06:47:34.604Z,2.30
2019-02-26T06:50:02.893Z,2.26
2019-02-26T06:52:29.955Z,2.30
2019-02-26T06:55:00.103Z,2.39
2019-02-26T06:57:26.909Z,2.62
2019-02-26T06:59:55.756Z,3.15
2019-02-26T07:02:22.203Z,3.94
2019-02-26T07:04:48.859Z,4.33
2019-02-26T07:07:15.626Z,4.76
2019-02-26T07:09:43.902Z,5.14
2019-02-26T07:12:10.824Z,5.80
2019-02-26T07:14:37.500Z,6.07
2019-02-26T07:17:04.249Z,6.31
2019-02-26T07:19:33.124Z,6.71
2019-02-26T07:21:59.522Z,7.72
2019-02-26T07:24:27.191Z,7.84
2019-02-26T07:26:54.030Z,7.87
2019-02-26T07:29:20.679Z,8.10
2019-02-26T07:31:49.438Z,8.82
2019-02-26T07:34:18.128Z,8.73
2019-02-26T07:36:45.693Z,9.44
2019-02-26T07:39:15.321Z,8.81
2019-02-26T07:41:42.315Z,8.62
2019-02-26T07:44:15.403Z,9.65
2019-02-26T07:46:40.228Z,9.74
2019-02-26T07:49:07.878Z,9.58
2019-02-26T07:51:36.402Z,9.05
2019-02-26T07:54:03.155Z,9.14
2019-02-26T07:56:32.106Z,11.31
2019-02-26T07:59:01.382Z,10.99
2019-02-26T08:01:27.075Z,10.80
2019-02-26T08:03:53.756Z,10.39
2019-02-26T08:06:20.530Z,10.30
2019-02-26T08:08:48.937Z,10.31
2019-02-26T08:11:15.836Z,10.62
2019-02-26T08:13:42.552Z,10.62
2019-02-26T08:16:09.419Z,11.41
2019-02-26T08:18:36.079Z,12.41
2019-02-26T08:21:04.876Z,13.35
2019-02-26T08:23:31.428Z,12.43
2019-02-26T08:26:00.468Z,12.38
2019-02-26T08:28:26.806Z,13.71
2019-02-26T08:30:55.208Z,14.80
2019-02-26T08:33:22.048Z,15.02
2019-02-26T08:35:48.726Z,16.51
2019-02-26T08:38:16.332Z,19.21
2019-02-26T08:40:43.094Z,16.51
2019-02-26T08:43:09.827Z,16.70
2019-02-26T08:45:36.490Z,16.16
2019-02-26T08:48:03.141Z,19.29
2019-02-26T08:50:33.019Z,16.08
2019-02-26T08:52:58.700Z,14.67
2019-02-26T08:55:25.713Z,18.58
2019-02-26T08:57:54.028Z,17.41
2019-02-26T09:00:21.117Z,18.36
2019-02-26T09:02:50.603Z,15.94
2019-02-26T09:05:16.525Z,15.95
2019-02-26T09:07:45.163Z,16.17
2019-02-26T09:10:13.150Z,15.49
2019-02-26T09:12:41.925Z,14.38
2019-02-26T09:15:11.321Z,15.12
2019-02-26T09:17:39.753Z,16.33
2019-02-26T09:20:12.187Z,16.19
2019-02-26T09:22:40.583Z,16.32
2019-02-26T09:25:06.876Z,16.60
2019-02-26T09:27:34.480Z,16.53
2019-02-26T09:30:03.458Z,16.02
2019-02-26T09:32:32.359Z,16.89
2019-02-26T09:35:01.471Z,17.16
2019-02-26T09:37:28.112Z,16.81
2019-02-26T09:39:56.797Z,16.54
2019-02-26T09:42:25.495Z,19.93
2019-02-26T09:44:53.036Z,22.15
2019-02-26T09:47:30.379Z,21.88
2019-02-26T09:49:58.380Z,20.32
2019-02-26T09:52:27.563Z,18.49
2019-02-26T09:54:55.200Z,20.08
2019-02-26T09:57:23.331Z,19.01
2019-02-26T09:59:52.230Z,20.36
2019-02-26T10:02:21.811Z,20.29
2019-02-26T10:04:49.608Z,20.28
2019-02-26T10:07:16.738Z,21.21
2019-02-26T10:09:46.594Z,21.71
2019-02-26T10:12:13.509Z,20.89
2019-02-26T10:14:40.555Z,19.77
2019-02-26T10:17:09.077Z,20.43
2019-02-26T10:19:38.183Z,23.12
2019-02-26T10:22:07.153Z,21.95
2019-02-26T10:24:34.868Z,21.51
2019-02-26T10:27:03.696Z,25.66
2019-02-26T10:29:32.327Z,24.31
2019-02-26T10:31:58.923Z,22.89
2019-02-26T10:34:30.104Z,22.95
2019-02-26T10:36:54.501Z,22.08
2019-02-26T10:39:23.196Z,21.78
2019-02-26T10:41:49.796Z,20.72
2019-02-26T10:44:16.504Z,22.03
2019-02-26T10:46:44.507Z,23.36
2019-02-26T10:49:12.467Z,25.72
2019-02-26T10:51:42.419Z,22.44
2019-02-26T10:54:11.754Z,22.20
2019-02-26T10:56:39.366Z,23.28
2019-02-26T10:59:06.666Z,22.20
2019-02-26T11:01:33.914Z,23.58
2019-02-26T11:04:00.841Z,23.14
2019-02-26T11:06:27.625Z,22.30
2019-02-26T11:08:55.851Z,21.94
2019-02-26T11:11:22.974Z,21.27
2019-02-26T11:13:51.943Z,22.27
2019-02-26T11:16:24.833Z,21.99
2019-02-26T11:18:47.705Z,20.70
2019-02-26T11:21:16.813Z,20.42
2019-02-26T11:23:44.519Z,24.01
2019-02-26T11:26:13.150Z,24.52
2019-02-26T11:28:42.890Z,24.73
2019-02-26T11:31:11.547Z,23.63
2019-02-26T11:33:38.014Z,22.03
2019-02-26T11:36:05.498Z,22.59
2019-02-26T11:38:34.729Z,22.45
2019-02-26T11:41:02.228Z,24.05
2019-02-26T11:43:29.059Z,23.61
2019-02-26T11:45:56.677Z,23.21
2019-02-26T11:48:25.926Z,24.99
2019-02-26T11:50:53.036Z,22.75
2019-02-26T11:53:19.787Z,24.37
2019-02-26T11:55:46.512Z,24.12
2019-02-26T11:58:16.055Z,22.77
2019-02-26T12:00:48.082Z,23.01
2019-02-26T12:03:14.766Z,24.30
2019-02-26T12:05:41.910Z,21.81
2019-02-26T12:08:08.784Z,22.48
2019-02-26T12:10:37.826Z,22.29
2019-02-26T12:13:04.331Z,22.31
2019-02-26T12:15:33.460Z,23.99
2019-02-26T12:17:59.572Z,24.40
2019-02-26T12:20:26.243Z,22.56
2019-02-26T12:22:55.218Z,23.02
2019-02-26T12:25:21.575Z,22.60
2019-02-26T12:27:48.327Z,22.52
2019-02-26T12:30:18.140Z,24.04
2019-02-26T12:35:17.717Z,23.18
2019-02-26T12:37:43.358Z,22.25
2019-02-26T12:40:12.987Z,21.23
2019-02-26T12:42:39.259Z,23.11
2019-02-26T12:45:09.909Z,23.84
2019-02-26T12:47:35.681Z,23.66
2019-02-26T12:50:05.221Z,23.53
2019-02-26T12:52:31.053Z,25.72
2019-02-26T12:55:00.123Z,25.87
2019-02-26T12:57:28.811Z,24.00
2019-02-26T12:59:54.876Z,23.97
2019-02-26T13:02:24.621Z,22.29
2019-02-26T13:04:51.595Z,23.26
2019-02-26T13:07:18.912Z,23.07
2019-02-26T13:09:50.457Z,24.95
2019-02-26T13:12:19.855Z,25.31
2019-02-26T13:14:43.594Z,25.69
2019-02-26T13:17:13.990Z,23.07
2019-02-26T13:19:41.470Z,23.26
2019-02-26T13:22:09.771Z,23.75
2019-02-26T13:24:36.982Z,25.77
2019-02-26T13:27:03.652Z,23.08
2019-02-26T13:29:31.339Z,25.89
2019-02-26T13:31:59.965Z,24.62
2019-02-26T13:34:26.898Z,23.89
2019-02-26T13:36:56.645Z,24.78
2019-02-26T13:39:29.655Z,24.04
2019-02-26T13:41:54.332Z,26.53
2019-02-26T13:44:19.486Z,25.32
2019-02-26T13:46:46.168Z,24.02
2019-02-26T13:49:12.846Z,22.69
2019-02-26T13:51:39.557Z,23.87
2019-02-26T13:54:06.275Z,26.39
2019-02-26T13:56:33.030Z,29.22
2019-02-26T13:58:59.698Z,30.21
2019-02-26T14:01:26.508Z,27.70
2019-02-26T14:03:53.154Z,28.92
2019-02-26T14:06:19.913Z,27.66
2019-02-26T14:08:46.583Z,28.86
2019-02-26T14:11:13.298Z,29.73
2019-02-26T14:13:40.008Z,25.82
2019-02-26T14:16:06.774Z,26.26
2019-02-26T14:18:33.432Z,24.86
2019-02-26T14:21:00.148Z,24.75
2019-02-26T14:23:27.009Z,25.29
2019-02-26T14:25:53.765Z,27.39
2019-02-26T14:28:20.437Z,25.94
2019-02-26T14:30:47.241Z,26.62
2019-02-26T14:33:13.951Z,25.39
2019-02-26T14:35:40.674Z,24.56
2019-02-26T14:38:07.375Z,24.16
2019-02-26T14:40:34.101Z,25.92
2019-02-26T14:43:00.756Z,26.75
2019-02-26T14:45:27.488Z,25.94
2019-02-26T14:47:54.194Z,24.10
2019-02-26T14:50:20.850Z,24.68
2019-02-26T14:52:47.539Z,24.29
2019-02-26T14:55:14.241Z,24.67
2019-02-26T14:57:40.935Z,24.10
2019-02-26T15:00:11.728Z,24.32
2019-02-26T15:02:38.389Z,22.49
2019-02-26T15:05:05.081Z,22.81
2019-02-26T15:07:31.920Z,23.35
2019-02-26T15:09:59.356Z,24.10
2019-02-26T15:12:26.181Z,22.58
2019-02-26T15:14:53.238Z,21.64
2019-02-26T15:17:20.429Z,23.57
2019-02-26T15:19:51.401Z,22.94
2019-02-26T15:22:15.843Z,23.84
2019-02-26T15:24:42.955Z,22.44
2019-02-26T15:27:10.820Z,21.54
2019-02-26T15:29:59.678Z,22.56
2019-02-26T15:32:26.635Z,20.97
2019-02-26T15:34:53.606Z,19.75
2019-02-26T15:37:20.286Z,18.78
2019-02-26T15:39:46.958Z,18.71
2019-02-26T15:42:14.043Z,19.12
2019-02-26T15:44:40.714Z,19.12
2019-02-26T15:47:09.214Z,18.39
2019-02-26T15:49:37.771Z,18.16
2019-02-26T15:52:04.828Z,17.73
2019-02-26T15:54:31.801Z,17.65
2019-02-26T15:57:00.482Z,17.52
2019-02-26T15:59:30.002Z,17.28
2019-02-26T16:01:56.958Z,17.33
2019-02-26T16:04:24.425Z,17.26
2019-02-26T16:06:51.144Z,16.97
2019-02-26T16:09:17.794Z,16.98
2019-02-26T16:11:44.606Z,16.75
2019-02-26T16:14:11.245Z,16.56
2019-02-26T16:16:38.062Z,16.48
2019-02-26T16:19:04.964Z,16.53
2019-02-26T16:21:31.801Z,16.40
2019-02-26T16:23:58.624Z,16.23
2019-02-26T16:26:25.508Z,16.18
2019-02-26T16:28:52.145Z,16.10
2019-02-26T16:31:18.850Z,16.09
2019-02-26T16:33:46.721Z,16.04
2019-02-26T16:36:14.189Z,15.87
2019-02-26T16:38:40.866Z,15.76
2019-02-26T16:41:07.560Z,15.56
2019-02-26T16:43:34.189Z,15.45
2019-02-26T16:46:00.940Z,15.21
2019-02-26T16:48:27.602Z,15.00
2019-02-26T16:50:54.355Z,14.89
2019-02-26T16:53:20.989Z,14.80
2019-02-26T16:55:49.069Z,14.75
2019-02-26T16:58:16.329Z,14.67
2019-02-26T17:00:43.081Z,14.44
2019-02-26T17:03:09.730Z,14.59
2019-02-26T17:05:36.600Z,14.41
2019-02-26T17:08:03.248Z,14.35
2019-02-26T17:10:30.639Z,14.01
2019-02-26T17:13:01.850Z,13.74
2019-02-26T17:15:27.142Z,13.69
2019-02-26T17:17:53.998Z,13.54
2019-02-26T17:20:22.529Z,13.45
2019-02-26T17:22:49.537Z,13.55
2019-02-26T17:25:16.371Z,13.66
2019-02-26T17:27:43.042Z,13.92
2019-02-26T17:30:10.304Z,14.04
2019-02-26T17:32:38.274Z,13.89
2019-02-26T17:35:06.344Z,13.51
2019-02-26T17:37:32.983Z,13.10
2019-02-26T17:40:02.734Z,12.90
2019-02-26T17:42:28.398Z,12.47
2019-02-26T17:44:55.051Z,12.23
2019-02-26T17:47:21.895Z,12.12
2019-02-26T17:49:48.775Z,12.00
2019-02-26T17:52:15.500Z,11.83
2019-02-26T17:54:42.466Z,11.90
2019-02-26T17:57:09.194Z,11.72
2019-02-26T17:59:37.432Z,11.46
2019-02-26T18:02:04.195Z,11.30
2019-02-26T18:04:30.864Z,11.22
2019-02-26T18:06:57.860Z,11.05
2019-02-26T18:09:26.106Z,10.86
2019-02-26T18:11:52.844Z,10.81
2019-02-26T18:14:19.497Z,10.64
2019-02-26T18:17:26.141Z,10.52
2019-02-26T18:19:52.858Z,10.62
2019-02-26T18:22:21.642Z,10.46
2019-02-26T18:24:48.206Z,10.32
2019-02-26T18:27:14.856Z,10.33
2019-02-26T18:29:43.871Z,10.40
2019-02-26T18:32:11.259Z,10.24
2019-02-26T18:34:38.878Z,10.19
2019-02-26T18:37:06.663Z,10.21
2019-02-26T18:39:33.349Z,9.95
2019-02-26T18:41:59.979Z,9.82
2019-02-26T18:44:27.188Z,10.01
2019-02-26T18:46:53.830Z,9.86
2019-02-26T18:49:21.842Z,9.77
2019-02-26T18:51:49.844Z,9.83
2019-02-26T18:54:17.714Z,9.79
2019-02-26T18:56:45.092Z,9.75
2019-02-26T18:59:11.850Z,9.61
2019-02-26T19:01:39.776Z,9.54
2019-02-26T19:04:06.466Z,9.59
2019-02-26T19:06:33.159Z,9.71
2019-02-26T19:09:00.068Z,9.56
2019-02-26T19:11:26.960Z,9.60
2019-02-26T19:13:53.857Z,9.50
2019-02-26T19:16:21.238Z,9.38
2019-02-26T19:18:48.175Z,9.35
2019-02-26T19:22:26.510Z,9.41
2019-02-26T19:24:53.015Z,9.10
2019-02-26T19:27:20.118Z,8.99
2019-02-26T19:29:47.153Z,8.94
2019-02-26T19:32:15.730Z,8.54
2019-02-26T19:34:42.473Z,8.62
2019-02-26T19:37:09.124Z,8.58
2019-02-26T19:39:35.991Z,8.75
2019-02-26T19:42:02.770Z,8.68
2019-02-26T19:44:30.518Z,8.51
2019-02-26T19:46:57.178Z,8.55
2019-02-26T19:49:24.091Z,8.55
2019-02-26T19:51:50.735Z,8.44
2019-02-26T19:54:17.467Z,8.42
2019-02-26T19:56:44.247Z,8.48
2019-02-26T19:59:13.518Z,8.14
2019-02-26T20:01:41.665Z,7.95
2019-02-26T20:04:08.431Z,8.11
2019-02-26T20:06:35.064Z,7.91
2019-02-26T20:09:05.851Z,7.90
2019-02-26T20:11:30.828Z,7.61
2019-02-26T20:14:04.568Z,7.83
2019-02-26T20:16:27.784Z,7.80
2019-02-26T20:18:56.756Z,7.59
2019-02-26T20:21:23.322Z,7.41
2019-02-26T20:23:50.081Z,7.57
2019-02-26T20:26:17.023Z,7.45
2019-02-26T20:28:43.799Z,7.59
2019-02-26T20:31:10.627Z,7.87
2019-02-26T20:33:37.500Z,7.91
2019-02-26T20:36:04.204Z,7.98
2019-02-26T20:38:35.055Z,7.68
2019-02-26T20:40:59.642Z,7.56
2019-02-26T20:43:26.319Z,7.44
2019-02-26T20:45:53.028Z,7.55
2019-02-26T20:48:19.680Z,7.39
2019-02-26T20:50:46.458Z,7.49
2019-02-26T20:53:13.149Z,7.53
2019-02-26T20:55:40.008Z,7.50
2019-02-26T20:58:06.708Z,7.33
2019-02-26T21:00:33.371Z,7.17
2019-02-26T21:03:00.204Z,7.38
2019-02-26T21:05:27.112Z,7.48
2019-02-26T21:07:58.100Z,7.55
2019-02-26T21:10:22.512Z,7.47
2019-02-26T21:12:49.143Z,7.73
2019-02-26T21:15:16.623Z,7.37
2019-02-26T21:17:43.610Z,7.33
2019-02-26T21:20:11.216Z,7.16
2019-02-26T21:22:37.903Z,7.09
2019-02-26T21:25:04.912Z,6.92
2019-02-26T21:27:31.564Z,6.85
2019-02-26T21:29:58.199Z,6.85
2019-02-26T21:32:25.750Z,6.81
2019-02-26T21:34:52.915Z,7.01
2019-02-26T21:37:19.570Z,7.16
2019-02-26T21:39:46.231Z,7.14
2019-02-26T21:42:13.049Z,6.90
2019-02-26T21:44:41.869Z,7.20
2019-02-26T21:47:08.383Z,7.19
2019-02-26T21:49:35.007Z,6.97
2019-02-26T21:52:01.648Z,6.94
2019-02-26T21:54:32.294Z,6.95
2019-02-26T21:56:59.122Z,7.12
2019-02-26T21:59:25.875Z,7.23
2019-02-26T22:01:52.709Z,7.41
2019-02-26T22:04:19.335Z,7.16
2019-02-26T22:06:47.792Z,7.29
2019-02-26T22:09:14.488Z,7.31
2019-02-26T22:11:41.121Z,7.43
2019-02-26T22:14:07.765Z,7.43
2019-02-26T22:16:34.429Z,7.51
2019-02-26T22:19:01.067Z,7.26
2019-02-26T22:21:27.699Z,7.14
2019-02-26T22:23:54.388Z,7.15
2019-02-26T22:26:21.031Z,7.15
2019-02-26T22:28:47.665Z,6.85
2019-02-26T22:31:14.340Z,6.90
2019-02-26T22:33:43.179Z,6.88
2019-02-26T22:36:09.610Z,7.04
2019-02-26T22:38:36.308Z,6.98
2019-02-26T22:41:03.058Z,7.19
2019-02-26T22:43:29.855Z,6.89
2019-02-26T22:46:00.760Z,6.83
2019-02-26T22:48:25.086Z,6.92
2019-02-26T22:50:51.726Z,6.87
2019-02-26T22:53:18.460Z,6.88
2019-02-26T22:55:49.633Z,6.59
2019-02-26T22:58:13.772Z,6.48
2019-02-26T23:01:11.640Z,6.58
2019-02-26T23:03:38.997Z,6.47
2019-02-26T23:06:05.612Z,6.23
2019-02-26T23:08:32.879Z,6.28
2019-02-26T23:10:59.526Z,6.53
2019-02-26T23:13:26.277Z,6.53
2019-02-26T23:15:52.922Z,6.38
2019-02-26T23:18:19.656Z,6.09
2019-02-26T23:20:46.297Z,5.95
2019-02-26T23:23:12.938Z,5.99
2019-02-26T23:25:39.611Z,6.08
2019-02-26T23:28:06.267Z,6.01
2019-02-26T23:30:32.979Z,5.99
2019-02-26T23:32:59.619Z,5.94
2019-02-26T23:35:26.341Z,5.81
2019-02-26T23:37:53.043Z,5.80
2019-02-26T23:40:19.802Z,5.93
2019-02-26T23:42:46.447Z,5.87
2019-02-26T23:45:13.174Z,5.68
2019-02-26T23:47:39.803Z,5.75
2019-02-26T23:50:06.580Z,5.79
2019-02-26T23:52:33.207Z,5.69
2019-02-26T23:54:59.926Z,5.64
2019-02-26T23:57:26.602Z,5.53
2019-02-26T23:59:53.321Z,5.71
